Terminal Aerodrome Forecast
Issued by NWS

Home | Current Version | Previous Version | Text Only | Print | Product List | Glossary On
Versions: 1 2 3 4 5 6 7 8 9 10 11 12 13 14 15 16 17 18
000
FTUS43 KIND 230213 AAA
TAFLAF
TAF AMD
KLAF 230213Z 2302/2324 35005KT P6SM SCT025 OVC050
      TEMPO 2303/2306 5SM -SHRA BR OVC025
     FM230600 VRB03KT 4SM SHRA OVC025
     FM231400 35008KT 2SM SHRA OVC008
     FM231800 34008KT P6SM OVC010
     FM232000 33008KT P6SM OVC050
      AMD LTD TO CLD VIS AND WIND TIL 231300=

USA.gov is the U.S. government's official web portal to all federal, state and local government web resources and services.